createdAt,value
2019-02-08T00:00:01.977Z,14.40
2019-02-08T00:00:33.241Z,14.38
2019-02-08T00:01:10.339Z,13.72
2019-02-08T00:01:41.571Z,14.87
2019-02-08T00:02:12.762Z,14.53
2019-02-08T00:02:44.004Z,14.45
2019-02-08T00:03:15.218Z,14.45
2019-02-08T00:03:46.457Z,14.03
2019-02-08T00:04:17.670Z,14.07
2019-02-08T00:04:48.881Z,14.10
2019-02-08T00:05:20.115Z,14.13
2019-02-08T00:05:51.384Z,14.60
2019-02-08T00:06:22.893Z,14.53
2019-02-08T00:06:54.092Z,14.03
2019-02-08T00:07:25.303Z,14.18
2019-02-08T00:07:56.507Z,14.55
2019-02-08T00:08:27.722Z,15.32
2019-02-08T00:08:58.926Z,14.38
2019-02-08T00:09:30.219Z,14.60
2019-02-08T00:10:01.478Z,14.55
2019-02-08T00:10:33.074Z,13.90
2019-02-08T00:11:04.287Z,14.10
2019-02-08T00:11:35.492Z,14.53
2019-02-08T00:12:07.218Z,14.47
2019-02-08T00:12:38.401Z,14.73
2019-02-08T00:13:09.602Z,14.90
2019-02-08T00:13:40.811Z,14.93
2019-02-08T00:14:12.018Z,14.05
2019-02-08T00:14:43.224Z,14.13
2019-02-08T00:15:14.454Z,13.65
2019-02-08T00:15:45.711Z,14.75
2019-02-08T00:16:16.923Z,13.38
2019-02-08T00:16:48.406Z,14.25
2019-02-08T00:17:19.682Z,14.47
2019-02-08T00:17:50.902Z,14.75
2019-02-08T00:18:22.106Z,14.80
2019-02-08T00:18:53.318Z,15.35
2019-02-08T00:19:24.523Z,15.00
2019-02-08T00:19:55.736Z,15.00
2019-02-08T00:20:26.944Z,15.10
2019-02-08T00:20:58.208Z,15.03
2019-02-08T00:21:29.427Z,14.55
2019-02-08T00:22:00.629Z,15.83
2019-02-08T00:22:32.202Z,15.80
2019-02-08T00:23:03.411Z,14.50
2019-02-08T00:23:34.608Z,15.23
2019-02-08T00:24:05.803Z,14.47
2019-02-08T00:24:37.000Z,15.28
2019-02-08T00:25:08.267Z,15.45
2019-02-08T00:25:39.476Z,15.45
2019-02-08T00:26:10.664Z,15.35
2019-02-08T00:26:41.847Z,14.18
2019-02-08T00:27:13.223Z,14.50
2019-02-08T00:27:44.421Z,14.60
2019-02-08T00:28:15.697Z,14.95
2019-02-08T00:28:46.908Z,15.25
2019-02-08T00:29:18.105Z,14.87
2019-02-08T00:29:49.303Z,15.30
2019-02-08T00:30:20.568Z,14.93
2019-02-08T00:30:51.764Z,15.35
2019-02-08T00:31:23.010Z,15.90
2019-02-08T00:31:54.215Z,15.13
2019-02-08T00:32:25.420Z,15.63
2019-02-08T00:32:56.887Z,15.95
2019-02-08T00:33:28.072Z,15.20
2019-02-08T00:33:59.289Z,15.48
2019-02-08T00:34:30.489Z,14.25
2019-02-08T00:35:01.698Z,15.25
2019-02-08T00:35:32.903Z,15.32
2019-02-08T00:36:04.108Z,16.65
2019-02-08T00:36:35.346Z,15.60
2019-02-08T00:37:06.559Z,15.45
2019-02-08T00:37:37.752Z,15.70
2019-02-08T00:38:08.951Z,14.87
2019-02-08T00:38:40.417Z,15.15
2019-02-08T00:39:11.620Z,14.65
2019-02-08T00:39:42.839Z,13.58
2019-02-08T00:40:14.073Z,14.90
2019-02-08T00:40:45.273Z,14.43
2019-02-08T00:41:16.493Z,15.00
2019-02-08T00:41:47.713Z,14.33
2019-02-08T00:42:18.925Z,14.25
2019-02-08T00:42:50.142Z,14.33
2019-02-08T00:43:21.528Z,14.63
2019-02-08T00:43:52.746Z,15.25
2019-02-08T00:44:24.000Z,15.05
2019-02-08T00:44:55.214Z,14.58
2019-02-08T00:45:26.472Z,14.50
2019-02-08T00:45:57.694Z,14.38
2019-02-08T00:46:28.905Z,13.93
2019-02-08T00:47:00.162Z,13.48
2019-02-08T00:47:31.382Z,14.05
2019-02-08T00:48:02.605Z,14.85
2019-02-08T00:48:33.814Z,14.35
2019-02-08T00:49:05.390Z,15.18
2019-02-08T00:49:36.608Z,13.65
2019-02-08T00:50:07.816Z,15.20
2019-02-08T00:50:39.047Z,14.65
2019-02-08T00:51:10.255Z,13.93
2019-02-08T00:51:41.490Z,15.32
2019-02-08T00:52:12.712Z,13.72
2019-02-08T00:52:43.951Z,14.40
2019-02-08T00:53:15.162Z,14.33
2019-02-08T00:53:46.364Z,14.53
2019-02-08T00:54:17.573Z,15.10
2019-02-08T00:54:49.162Z,14.93
2019-02-08T00:55:20.369Z,14.83
2019-02-08T00:55:51.576Z,14.00
2019-02-08T00:56:22.827Z,15.08
2019-02-08T00:56:54.055Z,15.00
2019-02-08T00:57:25.254Z,14.63
2019-02-08T00:57:56.458Z,15.32
2019-02-08T00:58:27.893Z,14.80
2019-02-08T00:58:59.101Z,14.20
2019-02-08T00:59:30.492Z,14.33
2019-02-08T01:00:01.699Z,15.05
2019-02-08T01:00:32.916Z,14.13
2019-02-08T01:01:04.128Z,14.70
2019-02-08T01:01:35.348Z,14.68
2019-02-08T01:02:06.561Z,14.70
2019-02-08T01:02:37.830Z,14.25
2019-02-08T01:03:09.079Z,14.95
2019-02-08T01:03:40.289Z,14.58
2019-02-08T01:04:11.518Z,14.35
2019-02-08T01:04:42.721Z,13.55
2019-02-08T01:05:14.209Z,14.60
2019-02-08T01:05:45.428Z,14.47
2019-02-08T01:06:16.631Z,15.05
2019-02-08T01:06:47.856Z,14.68
2019-02-08T01:07:19.087Z,13.72
2019-02-08T01:07:50.358Z,14.43
2019-02-08T01:08:21.554Z,14.03
2019-02-08T01:08:52.767Z,14.38
2019-02-08T01:09:23.975Z,14.65
2019-02-08T01:09:55.454Z,14.50
2019-02-08T01:10:26.710Z,14.60
2019-02-08T01:10:57.923Z,14.55
2019-02-08T01:11:29.187Z,15.38
2019-02-08T01:12:00.399Z,14.47
2019-02-08T01:12:31.599Z,14.80
2019-02-08T01:13:02.859Z,14.53
2019-02-08T01:13:34.044Z,14.90
2019-02-08T01:14:05.278Z,14.87
2019-02-08T01:14:36.536Z,15.23
2019-02-08T01:15:07.747Z,14.60
2019-02-08T01:15:39.319Z,15.48
2019-02-08T01:16:10.532Z,15.18
2019-02-08T01:16:41.735Z,14.53
2019-02-08T01:17:12.953Z,14.85
2019-02-08T01:17:44.194Z,14.33
2019-02-08T01:18:15.413Z,14.68
2019-02-08T01:18:46.616Z,15.10
2019-02-08T01:19:17.817Z,15.05
2019-02-08T01:19:49.078Z,15.35
2019-02-08T01:20:20.278Z,14.85
2019-02-08T01:20:51.486Z,15.65
2019-02-08T01:21:22.975Z,14.18
2019-02-08T01:21:54.182Z,16.17
2019-02-08T01:22:25.407Z,15.38
2019-02-08T01:22:56.646Z,14.80
2019-02-08T01:23:27.859Z,15.08
2019-02-08T01:23:59.106Z,15.43
2019-02-08T01:24:30.307Z,16.15
2019-02-08T01:25:01.522Z,16.37
2019-02-08T01:25:32.722Z,16.30
2019-02-08T01:26:03.948Z,15.98
2019-02-08T01:26:35.162Z,14.93
2019-02-08T01:27:06.360Z,16.52
2019-02-08T01:27:37.571Z,15.88
2019-02-08T01:28:08.782Z,15.80
2019-02-08T01:28:40.011Z,15.20
2019-02-08T01:29:11.205Z,15.40
2019-02-08T01:29:42.420Z,14.93
2019-02-08T01:30:13.636Z,15.70
2019-02-08T01:30:44.844Z,15.55
2019-02-08T01:31:16.079Z,16.05
2019-02-08T01:31:47.343Z,15.50
2019-02-08T01:32:18.566Z,14.60
2019-02-08T01:32:49.788Z,15.58
2019-02-08T01:33:21.053Z,15.32
2019-02-08T01:33:52.254Z,15.15
2019-02-08T01:34:23.453Z,15.93
2019-02-08T01:34:54.661Z,16.07
2019-02-08T01:35:25.871Z,15.63
2019-02-08T01:35:57.066Z,14.68
2019-02-08T01:36:28.315Z,15.53
2019-02-08T01:36:59.525Z,14.90
2019-02-08T01:37:30.751Z,15.40
2019-02-08T01:38:01.965Z,14.45
2019-02-08T01:38:33.167Z,15.75
2019-02-08T01:39:04.373Z,15.48
2019-02-08T01:39:35.582Z,15.72
2019-02-08T01:40:06.832Z,15.48
2019-02-08T01:40:38.048Z,15.40
2019-02-08T01:41:09.267Z,15.08
2019-02-08T01:41:40.518Z,15.53
2019-02-08T01:42:11.723Z,15.95
2019-02-08T01:42:42.934Z,15.95
2019-02-08T01:43:14.136Z,16.02
2019-02-08T01:43:45.339Z,15.63
2019-02-08T01:44:16.548Z,15.72
2019-02-08T01:44:47.740Z,16.48
2019-02-08T01:45:18.963Z,16.52
2019-02-08T01:45:50.556Z,16.20
2019-02-08T01:46:21.781Z,16.02
2019-02-08T01:46:52.982Z,15.58
2019-02-08T01:47:24.185Z,13.98
2019-02-08T01:47:55.417Z,16.70
2019-02-08T01:48:26.629Z,15.25
2019-02-08T01:48:57.851Z,15.68
2019-02-08T01:49:29.089Z,15.88
2019-02-08T01:50:00.293Z,15.78
2019-02-08T01:50:31.488Z,16.12
2019-02-08T01:51:02.701Z,16.90
2019-02-08T01:51:33.946Z,16.67
2019-02-08T01:52:05.197Z,15.45
2019-02-08T01:52:36.379Z,17.15
2019-02-08T01:53:07.592Z,16.70
2019-02-08T01:53:38.801Z,16.60
2019-02-08T01:54:10.007Z,17.12
2019-02-08T01:54:41.211Z,17.48
2019-02-08T01:55:12.445Z,16.70
2019-02-08T01:55:43.710Z,16.48
2019-02-08T01:56:14.939Z,16.70
2019-02-08T01:56:46.134Z,17.70
2019-02-08T01:57:17.355Z,16.60
2019-02-08T01:57:48.567Z,16.93
2019-02-08T01:58:19.781Z,17.07
2019-02-08T01:58:51.037Z,16.57
2019-02-08T01:59:22.253Z,17.82
2019-02-08T01:59:53.453Z,16.23
2019-02-08T02:00:24.669Z,17.23
2019-02-08T02:00:55.876Z,18.30
2019-02-08T02:01:27.087Z,16.05
2019-02-08T02:01:58.291Z,17.80
2019-02-08T02:02:29.548Z,16.73
2019-02-08T02:03:00.759Z,17.17
2019-02-08T02:03:31.962Z,17.67
2019-02-08T02:04:03.186Z,17.05
2019-02-08T02:04:34.409Z,16.30
2019-02-08T02:05:05.619Z,19.15
2019-02-08T02:05:36.843Z,16.90
2019-02-08T02:06:08.044Z,15.98
2019-02-08T02:06:39.242Z,17.02
2019-02-08T02:07:10.452Z,17.70
2019-02-08T02:07:41.713Z,17.23
2019-02-08T02:08:12.921Z,16.75
2019-02-08T02:08:44.121Z,16.77
2019-02-08T02:09:15.339Z,18.05
2019-02-08T02:09:46.540Z,17.15
2019-02-08T02:10:20.170Z,16.85
2019-02-08T02:10:51.385Z,16.25
2019-02-08T02:11:22.597Z,16.57
2019-02-08T02:11:53.806Z,17.02
2019-02-08T02:12:25.026Z,16.77
2019-02-08T02:12:56.280Z,17.12
2019-02-08T02:13:27.481Z,16.50
2019-02-08T02:13:58.689Z,17.40
2019-02-08T02:14:29.897Z,17.37
2019-02-08T02:15:01.118Z,17.07
2019-02-08T02:15:32.327Z,16.85
2019-02-08T02:16:04.165Z,17.82
2019-02-08T02:16:35.583Z,17.75
2019-02-08T02:17:06.792Z,18.10
2019-02-08T02:17:37.988Z,16.97
2019-02-08T02:18:09.220Z,17.05
2019-02-08T02:18:40.437Z,17.73
2019-02-08T02:19:11.650Z,17.60
2019-02-08T02:19:42.861Z,17.95
2019-02-08T02:20:14.098Z,17.35
2019-02-08T02:20:47.542Z,16.90
2019-02-08T02:21:18.748Z,17.70
2019-02-08T02:21:49.985Z,17.00
2019-02-08T02:22:21.201Z,17.35
2019-02-08T02:22:52.461Z,17.35
2019-02-08T02:23:23.692Z,17.82
2019-02-08T02:23:56.099Z,17.00
2019-02-08T02:24:27.677Z,18.07
2019-02-08T02:24:58.885Z,16.85
2019-02-08T02:25:30.099Z,16.67
2019-02-08T02:26:01.299Z,17.27
2019-02-08T02:26:32.535Z,17.30
2019-02-08T02:27:03.739Z,17.52
2019-02-08T02:27:34.949Z,17.45
2019-02-08T02:28:06.205Z,17.75
2019-02-08T02:28:37.468Z,18.27
2019-02-08T02:29:08.664Z,18.00
2019-02-08T02:29:39.945Z,17.42
2019-02-08T02:30:11.158Z,18.92
2019-02-08T02:30:42.375Z,18.00
2019-02-08T02:31:13.609Z,17.55
2019-02-08T02:31:44.801Z,17.15
2019-02-08T02:32:16.014Z,17.45
2019-02-08T02:32:47.226Z,18.07
2019-02-08T02:33:18.493Z,16.60
2019-02-08T02:33:49.690Z,17.80
2019-02-08T02:34:20.937Z,17.52
2019-02-08T02:34:52.276Z,18.17
2019-02-08T02:35:23.481Z,18.05
2019-02-08T02:35:54.713Z,17.35
2019-02-08T02:36:25.919Z,17.30
2019-02-08T02:36:57.122Z,17.23
2019-02-08T02:37:28.337Z,17.82
2019-02-08T02:37:59.571Z,17.35
2019-02-08T02:38:30.775Z,17.32
2019-02-08T02:39:01.977Z,17.67
2019-02-08T02:39:33.201Z,17.57
2019-02-08T02:40:04.447Z,17.62
2019-02-08T02:40:35.644Z,18.05
2019-02-08T02:41:06.857Z,18.20
2019-02-08T02:41:38.066Z,18.35
2019-02-08T02:42:09.276Z,18.77
2019-02-08T02:42:40.490Z,18.62
2019-02-08T02:43:11.705Z,19.10
2019-02-08T02:43:42.916Z,18.50
2019-02-08T02:44:14.123Z,18.52
2019-02-08T02:44:45.346Z,19.00
2019-02-08T02:45:17.484Z,17.82
2019-02-08T02:45:48.687Z,20.12
2019-02-08T02:46:19.909Z,18.20
2019-02-08T02:46:51.105Z,17.98
2019-02-08T02:47:22.312Z,18.32
2019-02-08T02:47:53.539Z,18.12
2019-02-08T02:48:24.793Z,19.10
2019-02-08T02:48:55.999Z,18.92
2019-02-08T02:49:27.208Z,19.50
2019-02-08T02:49:58.411Z,19.05
2019-02-08T02:50:29.633Z,19.65
2019-02-08T02:51:00.890Z,18.62
2019-02-08T02:51:32.110Z,18.95
2019-02-08T02:52:03.317Z,18.65
2019-02-08T02:52:34.529Z,18.87
2019-02-08T02:53:05.739Z,18.82
2019-02-08T02:53:36.939Z,19.65
2019-02-08T02:54:08.141Z,19.32
2019-02-08T02:54:39.375Z,18.75
2019-02-08T02:55:10.582Z,18.98
2019-02-08T02:55:41.799Z,19.30
2019-02-08T02:56:13.056Z,19.27
2019-02-08T02:56:44.260Z,19.82
2019-02-08T02:57:15.473Z,18.95
2019-02-08T02:57:46.682Z,19.70
2019-02-08T02:58:17.882Z,19.62
2019-02-08T02:58:49.088Z,18.42
2019-02-08T02:59:20.299Z,17.15
2019-02-08T02:59:51.494Z,17.48
2019-02-08T03:00:22.708Z,18.42
2019-02-08T03:00:53.900Z,18.20
2019-02-08T03:01:26.136Z,18.40
2019-02-08T03:01:57.336Z,18.62
2019-02-08T03:02:28.540Z,18.12
2019-02-08T03:02:59.744Z,18.98
2019-02-08T03:03:30.941Z,18.77
2019-02-08T03:04:02.145Z,18.00
2019-02-08T03:04:33.346Z,17.85
2019-02-08T03:05:04.546Z,18.00
2019-02-08T03:05:35.742Z,17.82
2019-02-08T03:06:06.995Z,18.05
2019-02-08T03:06:38.228Z,18.35
2019-02-08T03:07:09.548Z,18.25
2019-02-08T03:07:40.781Z,18.40
2019-02-08T03:08:11.997Z,18.75
2019-02-08T03:08:43.301Z,18.57
2019-02-08T03:09:14.564Z,17.35
2019-02-08T03:09:45.780Z,17.35
2019-02-08T03:10:17.008Z,17.07
2019-02-08T03:10:48.230Z,17.62
2019-02-08T03:11:19.445Z,17.48
2019-02-08T03:11:50.647Z,17.65
2019-02-08T03:12:22.234Z,18.07
2019-02-08T03:12:53.459Z,18.32
2019-02-08T03:13:24.718Z,17.35
2019-02-08T03:13:57.021Z,17.57
2019-02-08T03:14:28.231Z,17.10
2019-02-08T03:14:59.430Z,15.70
2019-02-08T03:15:30.647Z,16.70
2019-02-08T03:16:01.864Z,16.30
2019-02-08T03:16:33.079Z,16.70
2019-02-08T03:17:04.296Z,17.62
2019-02-08T03:17:35.491Z,15.83
2019-02-08T03:18:06.698Z,14.83
2019-02-08T03:18:37.945Z,15.05
2019-02-08T03:19:09.148Z,15.93
2019-02-08T03:19:40.348Z,15.35
2019-02-08T03:20:11.561Z,16.67
2019-02-08T03:20:42.775Z,15.85
2019-02-08T03:21:13.979Z,16.82
2019-02-08T03:21:45.183Z,15.65
2019-02-08T03:22:16.390Z,15.10
2019-02-08T03:22:49.852Z,16.35
2019-02-08T03:23:21.052Z,16.35
2019-02-08T03:23:52.322Z,16.82
2019-02-08T03:24:23.533Z,17.50
2019-02-08T03:24:54.753Z,16.80
2019-02-08T03:25:28.379Z,17.30
2019-02-08T03:25:59.605Z,17.27
2019-02-08T03:26:30.827Z,16.93
2019-02-08T03:27:02.031Z,16.82
2019-02-08T03:27:33.241Z,16.67
2019-02-08T03:28:04.451Z,17.90
2019-02-08T03:28:35.666Z,16.37
2019-02-08T03:29:06.878Z,17.85
2019-02-08T03:29:38.131Z,17.02
2019-02-08T03:30:09.351Z,17.15
2019-02-08T03:30:40.559Z,17.60
2019-02-08T03:31:11.784Z,16.27
2019-02-08T03:31:42.995Z,16.12
2019-02-08T03:32:14.224Z,17.05
2019-02-08T03:32:45.403Z,17.32
2019-02-08T03:33:16.660Z,17.37
2019-02-08T03:33:47.849Z,17.40
2019-02-08T03:34:19.090Z,17.15
2019-02-08T03:34:50.301Z,17.25
2019-02-08T03:35:21.508Z,18.48
2019-02-08T03:35:54.513Z,17.05
2019-02-08T03:36:25.721Z,17.32
2019-02-08T03:36:56.936Z,16.87
2019-02-08T03:37:28.166Z,16.48
2019-02-08T03:37:59.417Z,17.02
2019-02-08T03:38:30.673Z,16.25
2019-02-08T03:39:01.889Z,17.45
2019-02-08T03:39:33.086Z,16.77
2019-02-08T03:40:04.281Z,17.62
2019-02-08T03:40:35.500Z,17.32
2019-02-08T03:41:06.734Z,17.55
2019-02-08T03:41:37.940Z,17.60
2019-02-08T03:42:09.141Z,17.65
2019-02-08T03:42:40.341Z,17.65
2019-02-08T03:43:11.551Z,17.42
2019-02-08T03:43:42.802Z,18.25
2019-02-08T03:44:14.016Z,17.25
2019-02-08T03:44:45.242Z,17.15
2019-02-08T03:45:16.447Z,17.87
2019-02-08T03:45:47.696Z,17.20
2019-02-08T03:46:18.906Z,18.00
2019-02-08T03:46:50.101Z,16.85
2019-02-08T03:47:21.325Z,17.25
2019-02-08T03:47:52.521Z,18.00
2019-02-08T03:48:23.732Z,16.87
2019-02-08T03:48:54.939Z,17.27
2019-02-08T03:49:26.153Z,17.52
2019-02-08T03:49:57.346Z,17.45
2019-02-08T03:50:28.872Z,18.07
2019-02-08T03:51:00.140Z,17.52
2019-02-08T03:51:31.337Z,17.32
2019-02-08T03:52:02.562Z,18.30
2019-02-08T03:52:33.757Z,17.62
2019-02-08T03:53:04.965Z,17.57
2019-02-08T03:53:36.169Z,16.95
2019-02-08T03:54:07.396Z,17.02
2019-02-08T03:54:38.595Z,16.80
2019-02-08T03:55:09.799Z,17.35
2019-02-08T03:55:41.005Z,15.75
2019-02-08T03:56:12.257Z,16.20
2019-02-08T03:56:43.473Z,16.07
2019-02-08T03:57:14.687Z,17.20
2019-02-08T03:57:45.887Z,17.17
2019-02-08T03:58:17.095Z,16.07
2019-02-08T03:58:48.313Z,17.40
2019-02-08T03:59:19.520Z,17.52
2019-02-08T03:59:50.815Z,17.20
2019-02-08T04:00:22.022Z,17.17
2019-02-08T04:00:53.251Z,16.20
2019-02-08T04:01:24.460Z,17.70
2019-02-08T04:01:55.703Z,17.32
2019-02-08T04:02:26.934Z,17.60
2019-02-08T04:02:58.142Z,17.92
2019-02-08T04:03:31.690Z,17.55
2019-02-08T04:04:02.937Z,17.25
2019-02-08T04:04:34.128Z,16.80
2019-02-08T04:05:05.351Z,17.15
2019-02-08T04:05:36.560Z,16.70
2019-02-08T04:06:07.767Z,17.57
2019-02-08T04:06:39.001Z,16.37
2019-02-08T04:07:10.255Z,16.93
2019-02-08T04:07:41.460Z,16.45
2019-02-08T04:08:12.662Z,16.93
2019-02-08T04:08:43.866Z,16.40
2019-02-08T04:09:15.085Z,17.07
2019-02-08T04:09:46.303Z,17.67
2019-02-08T04:10:17.502Z,16.95
2019-02-08T04:10:48.708Z,17.12
2019-02-08T04:11:19.949Z,16.50
2019-02-08T04:11:51.168Z,16.65
2019-02-08T04:12:22.380Z,17.35
2019-02-08T04:12:53.587Z,16.10
2019-02-08T04:13:24.804Z,15.23
2019-02-08T04:13:56.017Z,16.60
2019-02-08T04:14:27.230Z,16.25
2019-02-08T04:14:58.437Z,16.90
2019-02-08T04:15:29.656Z,16.55
2019-02-08T04:16:00.865Z,16.42
2019-02-08T04:16:32.115Z,16.57
2019-02-08T04:17:03.329Z,16.55
2019-02-08T04:17:34.546Z,16.82
2019-02-08T04:18:05.766Z,16.45
2019-02-08T04:18:36.970Z,16.40
2019-02-08T04:19:08.185Z,16.70
2019-02-08T04:19:39.403Z,17.32
2019-02-08T04:20:10.608Z,15.90
2019-02-08T04:20:41.821Z,16.73
2019-02-08T04:21:13.035Z,17.10
2019-02-08T04:21:44.310Z,16.30
2019-02-08T04:22:15.503Z,16.42
2019-02-08T04:22:46.715Z,16.30
2019-02-08T04:23:17.936Z,16.75
2019-02-08T04:23:49.155Z,16.27
2019-02-08T04:24:20.356Z,16.57
2019-02-08T04:24:52.043Z,17.32
2019-02-08T04:25:23.248Z,16.95
2019-02-08T04:25:54.441Z,17.27
2019-02-08T04:26:25.675Z,17.00
2019-02-08T04:26:56.878Z,16.55
2019-02-08T04:27:28.076Z,16.45
2019-02-08T04:27:59.275Z,16.30
2019-02-08T04:28:30.511Z,16.20
2019-02-08T04:29:02.517Z,17.45
2019-02-08T04:29:33.707Z,16.90
2019-02-08T04:30:04.907Z,16.35
2019-02-08T04:30:36.106Z,16.23
2019-02-08T04:31:07.301Z,16.77
2019-02-08T04:31:38.498Z,16.82
2019-02-08T04:32:09.698Z,16.17
2019-02-08T04:32:40.897Z,16.60
2019-02-08T04:33:12.087Z,16.73
2019-02-08T04:33:43.281Z,17.15
2019-02-08T04:34:14.548Z,16.27
2019-02-08T04:34:45.765Z,16.10
2019-02-08T04:35:16.955Z,16.23
2019-02-08T04:35:48.190Z,16.05
2019-02-08T04:36:19.438Z,16.73
2019-02-08T04:36:50.684Z,17.62
2019-02-08T04:37:21.905Z,15.95
2019-02-08T04:37:53.098Z,16.73
2019-02-08T04:38:24.300Z,16.37
2019-02-08T04:38:55.505Z,16.75
2019-02-08T04:39:26.712Z,16.82
2019-02-08T04:39:57.915Z,16.42
2019-02-08T04:40:29.211Z,16.75
2019-02-08T04:41:00.406Z,17.27
2019-02-08T04:41:31.609Z,16.05
2019-02-08T04:42:02.835Z,15.43
2019-02-08T04:42:34.032Z,15.78
2019-02-08T04:43:05.240Z,16.37
2019-02-08T04:43:36.450Z,16.40
2019-02-08T04:44:07.651Z,15.58
2019-02-08T04:44:38.856Z,15.48
2019-02-08T04:45:10.066Z,16.27
2019-02-08T04:45:41.299Z,16.37
2019-02-08T04:46:12.505Z,15.90
2019-02-08T04:46:43.711Z,16.40
2019-02-08T04:47:14.996Z,16.42
2019-02-08T04:47:46.177Z,15.43
2019-02-08T04:48:17.379Z,15.70
2019-02-08T04:48:48.617Z,16.10
2019-02-08T04:49:19.807Z,16.10
2019-02-08T04:49:51.021Z,16.65
2019-02-08T04:50:22.226Z,15.88
2019-02-08T04:50:53.441Z,15.55
2019-02-08T04:51:25.775Z,15.08
2019-02-08T04:51:57.130Z,14.83
2019-02-08T04:52:28.371Z,14.80
2019-02-08T04:52:59.627Z,15.38
2019-02-08T04:53:30.836Z,15.55
2019-02-08T04:54:02.101Z,15.88
2019-02-08T04:54:38.442Z,15.80
2019-02-08T04:55:06.237Z,15.43
2019-02-08T04:55:37.445Z,15.15
2019-02-08T04:56:08.664Z,14.93
2019-02-08T04:56:39.873Z,14.58
2019-02-08T04:57:11.072Z,16.87
2019-02-08T04:57:42.314Z,15.15
2019-02-08T04:58:13.542Z,15.55
2019-02-08T04:58:44.743Z,16.32
2019-02-08T04:59:15.944Z,15.85
2019-02-08T04:59:47.151Z,15.15
2019-02-08T05:00:18.360Z,16.17
2019-02-08T05:00:49.569Z,15.75
2019-02-08T05:01:20.778Z,15.90
2019-02-08T05:01:51.984Z,16.60
2019-02-08T05:02:23.177Z,16.00
2019-02-08T05:02:54.396Z,15.40
2019-02-08T05:03:25.647Z,15.58
2019-02-08T05:03:56.931Z,14.03
2019-02-08T05:04:28.141Z,15.13
2019-02-08T05:04:59.345Z,15.80
2019-02-08T05:05:30.578Z,15.75
2019-02-08T05:06:01.787Z,16.02
2019-02-08T05:06:33.003Z,16.10
2019-02-08T05:07:04.195Z,15.95
2019-02-08T05:07:35.388Z,15.15
2019-02-08T05:08:06.587Z,15.65
2019-02-08T05:08:37.786Z,15.10
2019-02-08T05:09:09.088Z,15.65
2019-02-08T05:09:40.278Z,15.55
2019-02-08T05:10:11.465Z,14.58
2019-02-08T05:10:42.709Z,15.25
2019-02-08T05:11:13.896Z,15.78
2019-02-08T05:11:45.114Z,15.55
2019-02-08T05:12:16.320Z,15.72
2019-02-08T05:12:47.518Z,16.12
2019-02-08T05:13:18.734Z,16.97
2019-02-08T05:13:49.931Z,15.53
2019-02-08T05:14:21.139Z,15.45
2019-02-08T05:14:52.372Z,16.55
2019-02-08T05:15:23.583Z,15.78
2019-02-08T05:15:54.769Z,16.32
2019-02-08T05:16:25.960Z,17.25
2019-02-08T05:16:57.174Z,17.20
2019-02-08T05:17:28.399Z,17.40
2019-02-08T05:17:59.675Z,16.42
2019-02-08T05:18:30.906Z,17.40
2019-02-08T05:19:02.115Z,16.37
2019-02-08T05:19:33.318Z,16.65
2019-02-08T05:20:04.518Z,17.92
2019-02-08T05:20:35.718Z,16.15
2019-02-08T05:21:06.927Z,16.85
2019-02-08T05:21:38.129Z,16.15
2019-02-08T05:22:09.323Z,17.02
2019-02-08T05:22:40.528Z,15.35
2019-02-08T05:23:11.752Z,16.62
2019-02-08T05:23:43.012Z,17.30
2019-02-08T05:24:14.227Z,17.70
2019-02-08T05:24:46.154Z,17.15
2019-02-08T05:25:18.334Z,17.48
2019-02-08T05:25:49.544Z,17.55
2019-02-08T05:26:20.757Z,17.02
2019-02-08T05:26:51.962Z,16.57
2019-02-08T05:27:23.190Z,16.37
2019-02-08T05:27:54.436Z,16.57
2019-02-08T05:28:25.641Z,16.00
2019-02-08T05:28:56.893Z,17.10
2019-02-08T05:29:28.096Z,17.42
2019-02-08T05:29:59.311Z,16.70
2019-02-08T05:30:30.537Z,16.25
2019-02-08T05:31:01.742Z,16.70
2019-02-08T05:31:32.951Z,17.15
2019-02-08T05:32:04.150Z,16.97
2019-02-08T05:32:35.353Z,16.30
2019-02-08T05:33:06.553Z,17.45
2019-02-08T05:33:37.758Z,18.00
2019-02-08T05:34:09.026Z,17.07
2019-02-08T05:34:40.224Z,16.85
2019-02-08T05:35:11.432Z,16.93
2019-02-08T05:35:42.647Z,17.73
2019-02-08T05:36:13.848Z,17.10
2019-02-08T05:36:45.048Z,17.92
2019-02-08T05:37:16.248Z,17.12
2019-02-08T05:37:47.437Z,16.67
2019-02-08T05:38:18.653Z,18.75
2019-02-08T05:38:49.885Z,17.67
2019-02-08T05:39:21.171Z,17.70
2019-02-08T05:39:52.373Z,17.77
2019-02-08T05:40:23.572Z,17.75
2019-02-08T05:40:54.786Z,17.62
2019-02-08T05:41:25.976Z,18.37
2019-02-08T05:41:57.177Z,18.12
2019-02-08T05:42:28.394Z,17.57
2019-02-08T05:42:59.590Z,18.20
2019-02-08T05:43:30.800Z,17.48
2019-02-08T05:44:01.997Z,17.62
2019-02-08T05:44:33.243Z,18.20
2019-02-08T05:45:04.473Z,17.67
2019-02-08T05:45:35.749Z,17.00
2019-02-08T05:46:06.991Z,17.45
2019-02-08T05:46:38.243Z,17.37
2019-02-08T05:47:09.456Z,17.98
2019-02-08T05:47:40.657Z,17.92
2019-02-08T05:48:11.877Z,18.15
2019-02-08T05:48:43.082Z,18.50
2019-02-08T05:49:14.300Z,17.12
2019-02-08T05:49:45.516Z,17.15
2019-02-08T05:50:16.702Z,18.23
2019-02-08T05:50:47.925Z,18.95
2019-02-08T05:51:19.130Z,17.82
2019-02-08T05:51:50.377Z,18.77
2019-02-08T05:52:21.594Z,18.42
2019-02-08T05:52:52.837Z,18.67
2019-02-08T05:53:24.074Z,19.25
2019-02-08T05:53:55.291Z,21.00
2019-02-08T05:54:26.495Z,18.15
2019-02-08T05:54:57.695Z,21.70
2019-02-08T05:55:28.902Z,24.57
2019-02-08T05:56:00.146Z,25.80
2019-02-08T05:56:31.362Z,20.45
2019-02-08T05:57:02.550Z,17.35
2019-02-08T05:57:33.743Z,17.50
2019-02-08T05:58:04.967Z,19.25
2019-02-08T05:58:36.138Z,24.32
2019-02-08T05:59:07.345Z,24.12
2019-02-08T05:59:38.551Z,25.20
2019-02-08T06:00:09.772Z,21.82
2019-02-08T06:00:41.037Z,22.10
2019-02-08T06:01:12.248Z,24.45
2019-02-08T06:01:43.465Z,18.27
2019-02-08T06:02:14.677Z,23.65
2019-02-08T06:02:45.948Z,22.58
2019-02-08T06:03:17.162Z,25.35
2019-02-08T06:03:48.381Z,19.48
2019-02-08T06:04:19.595Z,20.65
2019-02-08T06:04:50.797Z,23.42
2019-02-08T06:05:22.021Z,23.35
2019-02-08T06:05:53.309Z,26.70
2019-02-08T06:06:24.510Z,20.82
2019-02-08T06:06:55.718Z,23.05
2019-02-08T06:07:26.920Z,26.40
2019-02-08T06:07:58.127Z,27.05
2019-02-08T06:08:29.338Z,25.65
2019-02-08T06:09:00.567Z,24.92
2019-02-08T06:09:31.795Z,26.33
2019-02-08T06:10:03.016Z,21.52
2019-02-08T06:10:34.222Z,23.67
2019-02-08T06:11:05.479Z,22.13
2019-02-08T06:11:36.692Z,22.22
2019-02-08T06:12:07.903Z,23.50
2019-02-08T06:12:39.111Z,23.52
2019-02-08T06:13:10.394Z,21.48
2019-02-08T06:13:41.607Z,19.37
2019-02-08T06:14:12.813Z,18.77
2019-02-08T06:14:44.016Z,17.40
2019-02-08T06:15:15.242Z,16.67
2019-02-08T06:15:46.484Z,18.95
2019-02-08T06:16:17.699Z,23.92
2019-02-08T06:16:48.907Z,20.05
2019-02-08T06:17:20.112Z,18.75
2019-02-08T06:17:51.309Z,21.60
2019-02-08T06:18:22.518Z,21.35
2019-02-08T06:18:53.729Z,22.17
2019-02-08T06:19:24.936Z,21.57
2019-02-08T06:19:56.185Z,18.20
2019-02-08T06:20:27.387Z,16.93
2019-02-08T06:20:58.607Z,18.70
2019-02-08T06:21:29.811Z,19.15
2019-02-08T06:22:01.018Z,18.82
2019-02-08T06:22:32.230Z,19.32
2019-02-08T06:23:03.436Z,18.62
2019-02-08T06:23:34.680Z,18.85
2019-02-08T06:24:05.906Z,20.08
2019-02-08T06:24:37.114Z,21.48
2019-02-08T06:25:08.324Z,20.65
2019-02-08T06:25:39.535Z,20.60
2019-02-08T06:26:10.766Z,21.10
2019-02-08T06:26:41.943Z,22.65
2019-02-08T06:27:13.188Z,21.77
2019-02-08T06:27:44.398Z,22.58
2019-02-08T06:28:15.604Z,23.38
2019-02-08T06:28:46.826Z,22.22
2019-02-08T06:29:18.030Z,22.50
2019-02-08T06:29:49.258Z,22.00
2019-02-08T06:30:20.450Z,23.85
2019-02-08T06:30:51.677Z,23.60
2019-02-08T06:31:23.792Z,24.27
2019-02-08T06:31:55.005Z,23.75
2019-02-08T06:32:26.227Z,23.12
2019-02-08T06:32:57.441Z,23.27
2019-02-08T06:33:28.652Z,23.98
2019-02-08T06:33:59.853Z,22.67
2019-02-08T06:34:31.114Z,24.95
2019-02-08T06:35:02.320Z,18.05
2019-02-08T06:35:33.528Z,17.87
2019-02-08T06:36:04.788Z,17.27
2019-02-08T06:36:35.995Z,18.27
2019-02-08T06:37:07.222Z,17.62
2019-02-08T06:37:44.095Z,17.25
2019-02-08T06:38:11.377Z,18.50
2019-02-08T06:38:42.621Z,17.10
2019-02-08T06:39:13.824Z,18.37
2019-02-08T06:39:45.058Z,17.87
2019-02-08T06:40:16.240Z,19.23
2019-02-08T06:40:47.447Z,19.57
2019-02-08T06:41:18.650Z,19.35
2019-02-08T06:41:49.868Z,18.45
2019-02-08T06:42:21.082Z,17.60